ADDS METAR Data

Data at: 1825 UTC 20 Jul 2018

METAR for:KBVY (Beverly Muni, MA, US)
Text:KBVY 201753Z 13011KT 10SM FEW060 25/14 A3017 RMK AO2 SLP209 T02500144 10272 20200 58003
Temperature: 25.0°C ( 77°F)
Dewpoint: 14.4°C ( 58°F) [RH = 52%]
Pressure (altimeter):30.17 inches Hg (1021.8 mb) [Sea level pressure: 1020.9 mb]
Winds:from the SE (130 degrees) at 13 MPH (11 knots; 5.7 m/s)
Visibility:10 or more sm (16+ km)
Ceiling:at least 12,000 feet AGL
Clouds: few clouds at 6000 feet AGL